sensor_id;sensor_type;location;lat;lon;timestamp;P1;durP1;ratioP1;P2;durP2;ratioP2
44728;SDS011;30457;53.590;9.922;2023-02-22T00:00:51;11.98;;;6.45;;
44728;SDS011;30457;53.590;9.922;2023-02-22T00:05:17;17.27;;;8.07;;
44728;SDS011;30457;53.590;9.922;2023-02-22T00:09:46;16.95;;;8.05;;
44728;SDS011;30457;53.590;9.922;2023-02-22T00:14:13;16.55;;;7.22;;
44728;SDS011;30457;53.590;9.922;2023-02-22T00:18:39;15.73;;;7.57;;
44728;SDS011;30457;53.590;9.922;2023-02-22T00:23:05;18.63;;;8.02;;
44728;SDS011;30457;53.590;9.922;2023-02-22T00:27:33;20.05;;;9.15;;
44728;SDS011;30457;53.590;9.922;2023-02-22T00:31:59;17.02;;;8.27;;
44728;SDS011;30457;53.590;9.922;2023-02-22T00:36:24;15.45;;;7.00;;
44728;SDS011;30457;53.590;9.922;2023-02-22T00:40:51;17.58;;;7.20;;
44728;SDS011;30457;53.590;9.922;2023-02-22T00:45:18;15.43;;;7.00;;
44728;SDS011;30457;53.590;9.922;2023-02-22T00:49:45;19.67;;;8.43;;
44728;SDS011;30457;53.590;9.922;2023-02-22T00:54:11;19.25;;;8.40;;
44728;SDS011;30457;53.590;9.922;2023-02-22T00:58:38;19.10;;;7.75;;
44728;SDS011;30457;53.590;9.922;2023-02-22T01:03:04;24.05;;;10.40;;
44728;SDS011;30457;53.590;9.922;2023-02-22T01:07:31;23.17;;;9.88;;
44728;SDS011;30457;53.590;9.922;2023-02-22T01:11:56;28.27;;;10.55;;
44728;SDS011;30457;53.590;9.922;2023-02-22T01:16:22;26.48;;;11.40;;
44728;SDS011;30457;53.590;9.922;2023-02-22T01:20:48;30.60;;;10.15;;
44728;SDS011;30457;53.590;9.922;2023-02-22T01:25:15;30.13;;;12.23;;
44728;SDS011;30457;53.590;9.922;2023-02-22T01:29:44;26.00;;;10.10;;
44728;SDS011;30457;53.590;9.922;2023-02-22T01:34:12;28.70;;;12.63;;
44728;SDS011;30457;53.590;9.922;2023-02-22T01:38:40;33.88;;;12.15;;
44728;SDS011;30457;53.590;9.922;2023-02-22T01:43:15;26.25;;;11.02;;
44728;SDS011;30457;53.590;9.922;2023-02-22T01:47:44;26.80;;;10.50;;
44728;SDS011;30457;53.590;9.922;2023-02-22T01:52:10;31.92;;;12.07;;
44728;SDS011;30457;53.590;9.922;2023-02-22T01:56:40;26.02;;;10.23;;
44728;SDS011;30457;53.590;9.922;2023-02-22T02:01:15;29.80;;;11.57;;
44728;SDS011;30457;53.590;9.922;2023-02-22T02:05:42;31.25;;;10.35;;
44728;SDS011;30457;53.590;9.922;2023-02-22T02:10:10;24.88;;;10.18;;
44728;SDS011;30457;53.590;9.922;2023-02-22T02:14:39;25.25;;;9.70;;
44728;SDS011;30457;53.590;9.922;2023-02-22T02:19:09;25.98;;;10.38;;
44728;SDS011;30457;53.590;9.922;2023-02-22T02:24:14;28.75;;;10.90;;
44728;SDS011;30457;53.590;9.922;2023-02-22T02:47:57;22.27;;;10.27;;
44728;SDS011;30457;53.590;9.922;2023-02-22T02:52:26;27.25;;;10.05;;
44728;SDS011;30457;53.590;9.922;2023-02-22T02:56:53;30.02;;;11.48;;
44728;SDS011;30457;53.590;9.922;2023-02-22T03:01:44;35.28;;;12.20;;
44728;SDS011;30457;53.590;9.922;2023-02-22T03:20:03;26.55;;;10.02;;
44728;SDS011;30457;53.590;9.922;2023-02-22T03:28:59;25.63;;;10.68;;
44728;SDS011;30457;53.590;9.922;2023-02-22T03:33:34;23.75;;;10.35;;
44728;SDS011;30457;53.590;9.922;2023-02-22T03:38:07;22.98;;;9.30;;
44728;SDS011;30457;53.590;9.922;2023-02-22T03:42:36;20.65;;;9.10;;
44728;SDS011;30457;53.590;9.922;2023-02-22T03:47:05;22.83;;;9.32;;
44728;SDS011;30457;53.590;9.922;2023-02-22T03:51:34;20.42;;;9.20;;
44728;SDS011;30457;53.590;9.922;2023-02-22T03:56:01;20.27;;;10.07;;
44728;SDS011;30457;53.590;9.922;2023-02-22T04:00:32;21.73;;;8.98;;
44728;SDS011;30457;53.590;9.922;2023-02-22T04:04:58;18.13;;;9.25;;
44728;SDS011;30457;53.590;9.922;2023-02-22T04:09:26;21.13;;;9.80;;
44728;SDS011;30457;53.590;9.922;2023-02-22T04:13:51;17.50;;;8.07;;
44728;SDS011;30457;53.590;9.922;2023-02-22T04:18:19;25.00;;;9.95;;
44728;SDS011;30457;53.590;9.922;2023-02-22T04:22:46;19.05;;;8.90;;
44728;SDS011;30457;53.590;9.922;2023-02-22T04:27:14;21.98;;;10.02;;
44728;SDS011;30457;53.590;9.922;2023-02-22T04:31:41;21.15;;;9.38;;
44728;SDS011;30457;53.590;9.922;2023-02-22T04:36:07;23.73;;;9.48;;
44728;SDS011;30457;53.590;9.922;2023-02-22T04:40:34;18.83;;;9.77;;
44728;SDS011;30457;53.590;9.922;2023-02-22T04:45:00;21.63;;;8.82;;
44728;SDS011;30457;53.590;9.922;2023-02-22T04:49:26;17.50;;;8.63;;
44728;SDS011;30457;53.590;9.922;2023-02-22T04:53:53;21.13;;;10.50;;
44728;SDS011;30457;53.590;9.922;2023-02-22T04:58:19;19.63;;;8.77;;
44728;SDS011;30457;53.590;9.922;2023-02-22T05:02:47;21.35;;;10.38;;
44728;SDS011;30457;53.590;9.922;2023-02-22T05:07:13;23.48;;;10.13;;
44728;SDS011;30457;53.590;9.922;2023-02-22T05:11:39;25.63;;;11.05;;
44728;SDS011;30457;53.590;9.922;2023-02-22T05:16:04;21.80;;;9.65;;
44728;SDS011;30457;53.590;9.922;2023-02-22T05:20:31;27.73;;;11.15;;
44728;SDS011;30457;53.590;9.922;2023-02-22T05:24:58;25.52;;;10.45;;
44728;SDS011;30457;53.590;9.922;2023-02-22T05:29:23;26.05;;;10.82;;
44728;SDS011;30457;53.590;9.922;2023-02-22T05:33:49;30.42;;;11.98;;
44728;SDS011;30457;53.590;9.922;2023-02-22T05:38:15;26.33;;;11.57;;
44728;SDS011;30457;53.590;9.922;2023-02-22T05:42:40;28.15;;;11.15;;
44728;SDS011;30457;53.590;9.922;2023-02-22T05:47:06;34.63;;;12.00;;
44728;SDS011;30457;53.590;9.922;2023-02-22T05:51:32;27.10;;;11.00;;
44728;SDS011;30457;53.590;9.922;2023-02-22T05:55:57;31.83;;;11.52;;
44728;SDS011;30457;53.590;9.922;2023-02-22T06:00:24;30.27;;;11.73;;
44728;SDS011;30457;53.590;9.922;2023-02-22T06:04:52;31.40;;;12.32;;
44728;SDS011;30457;53.590;9.922;2023-02-22T06:09:17;35.33;;;12.00;;
44728;SDS011;30457;53.590;9.922;2023-02-22T06:13:47;28.02;;;12.13;;
44728;SDS011;30457;53.590;9.922;2023-02-22T06:18:15;34.42;;;11.20;;
44728;SDS011;30457;53.590;9.922;2023-02-22T06:22:40;39.03;;;13.60;;
44728;SDS011;30457;53.590;9.922;2023-02-22T06:27:06;30.98;;;12.63;;
44728;SDS011;30457;53.590;9.922;2023-02-22T06:31:32;33.88;;;12.38;;
44728;SDS011;30457;53.590;9.922;2023-02-22T06:35:57;34.20;;;11.60;;
44728;SDS011;30457;53.590;9.922;2023-02-22T06:40:23;32.60;;;11.80;;
44728;SDS011;30457;53.590;9.922;2023-02-22T06:44:53;31.40;;;11.50;;
44728;SDS011;30457;53.590;9.922;2023-02-22T06:49:19;30.85;;;11.63;;
44728;SDS011;30457;53.590;9.922;2023-02-22T06:53:44;31.02;;;12.48;;
44728;SDS011;30457;53.590;9.922;2023-02-22T06:58:10;34.33;;;11.80;;
44728;SDS011;30457;53.590;9.922;2023-02-22T07:02:35;32.38;;;11.75;;
44728;SDS011;30457;53.590;9.922;2023-02-22T07:07:02;30.15;;;12.15;;
44728;SDS011;30457;53.590;9.922;2023-02-22T07:11:28;32.47;;;12.65;;
44728;SDS011;30457;53.590;9.922;2023-02-22T07:15:53;24.45;;;10.02;;
44728;SDS011;30457;53.590;9.922;2023-02-22T07:20:19;33.47;;;12.57;;
44728;SDS011;30457;53.590;9.922;2023-02-22T07:24:45;31.88;;;12.02;;
44728;SDS011;30457;53.590;9.922;2023-02-22T07:29:11;34.00;;;10.70;;
44728;SDS011;30457;53.590;9.922;2023-02-22T07:33:37;31.17;;;10.65;;
44728;SDS011;30457;53.590;9.922;2023-02-22T07:38:03;25.30;;;10.38;;
44728;SDS011;30457;53.590;9.922;2023-02-22T07:42:32;26.25;;;10.07;;
44728;SDS011;30457;53.590;9.922;2023-02-22T07:46:57;25.90;;;9.80;;
44728;SDS011;30457;53.590;9.922;2023-02-22T07:51:23;25.95;;;9.75;;
44728;SDS011;30457;53.590;9.922;2023-02-22T07:55:48;24.83;;;10.48;;
44728;SDS011;30457;53.590;9.922;2023-02-22T08:00:15;28.15;;;10.98;;
44728;SDS011;30457;53.590;9.922;2023-02-22T08:04:47;24.88;;;10.20;;
44728;SDS011;30457;53.590;9.922;2023-02-22T08:09:12;27.23;;;10.10;;
44728;SDS011;30457;53.590;9.922;2023-02-22T08:13:38;24.13;;;10.43;;
44728;SDS011;30457;53.590;9.922;2023-02-22T08:18:05;20.50;;;9.85;;
44728;SDS011;30457;53.590;9.922;2023-02-22T08:22:38;23.58;;;10.10;;
44728;SDS011;30457;53.590;9.922;2023-02-22T08:27:08;24.88;;;11.45;;
44728;SDS011;30457;53.590;9.922;2023-02-22T08:31:33;25.67;;;11.50;;
44728;SDS011;30457;53.590;9.922;2023-02-22T08:35:59;26.10;;;9.77;;
44728;SDS011;30457;53.590;9.922;2023-02-22T08:40:26;22.20;;;10.00;;
44728;SDS011;30457;53.590;9.922;2023-02-22T08:44:53;24.25;;;11.10;;
44728;SDS011;30457;53.590;9.922;2023-02-22T08:49:18;22.10;;;9.63;;
44728;SDS011;30457;53.590;9.922;2023-02-22T08:53:44;24.58;;;10.80;;
44728;SDS011;30457;53.590;9.922;2023-02-22T08:58:10;23.52;;;10.85;;
44728;SDS011;30457;53.590;9.922;2023-02-22T09:02:36;19.25;;;9.30;;
44728;SDS011;30457;53.590;9.922;2023-02-22T09:07:02;20.73;;;9.77;;
44728;SDS011;30457;53.590;9.922;2023-02-22T09:11:27;20.15;;;9.32;;
44728;SDS011;30457;53.590;9.922;2023-02-22T09:15:53;18.50;;;8.32;;
44728;SDS011;30457;53.590;9.922;2023-02-22T09:20:19;16.00;;;8.40;;
44728;SDS011;30457;53.590;9.922;2023-02-22T09:24:46;20.45;;;9.95;;
44728;SDS011;30457;53.590;9.922;2023-02-22T09:29:11;22.08;;;9.75;;
44728;SDS011;30457;53.590;9.922;2023-02-22T09:33:37;22.83;;;10.57;;
44728;SDS011;30457;53.590;9.922;2023-02-22T09:38:04;24.75;;;11.00;;
44728;SDS011;30457;53.590;9.922;2023-02-22T09:42:32;25.65;;;13.13;;
44728;SDS011;30457;53.590;9.922;2023-02-22T09:47:04;22.35;;;10.55;;
44728;SDS011;30457;53.590;9.922;2023-02-22T09:52:10;27.42;;;10.68;;
44728;SDS011;30457;53.590;9.922;2023-02-22T09:56:35;25.98;;;10.25;;
44728;SDS011;30457;53.590;9.922;2023-02-22T10:01:07;21.30;;;11.10;;
44728;SDS011;30457;53.590;9.922;2023-02-22T10:05:59;19.60;;;9.30;;
44728;SDS011;30457;53.590;9.922;2023-02-22T10:10:35;18.00;;;8.55;;
44728;SDS011;30457;53.590;9.922;2023-02-22T10:15:08;19.95;;;9.85;;
44728;SDS011;30457;53.590;9.922;2023-02-22T10:25:02;18.10;;;8.98;;
44728;SDS011;30457;53.590;9.922;2023-02-22T10:29:42;16.55;;;8.13;;
44728;SDS011;30457;53.590;9.922;2023-02-22T10:34:20;16.63;;;9.07;;
44728;SDS011;30457;53.590;9.922;2023-02-22T10:39:02;14.52;;;8.40;;
44728;SDS011;30457;53.590;9.922;2023-02-22T10:43:51;17.25;;;8.52;;
44728;SDS011;30457;53.590;9.922;2023-02-22T10:48:16;19.52;;;10.85;;
44728;SDS011;30457;53.590;9.922;2023-02-22T10:52:45;17.92;;;9.07;;
44728;SDS011;30457;53.590;9.922;2023-02-22T10:57:10;19.30;;;10.00;;
44728;SDS011;30457;53.590;9.922;2023-02-22T11:01:37;21.52;;;10.10;;
44728;SDS011;30457;53.590;9.922;2023-02-22T11:06:17;19.52;;;9.80;;
44728;SDS011;30457;53.590;9.922;2023-02-22T11:10:43;17.88;;;9.25;;
44728;SDS011;30457;53.590;9.922;2023-02-22T11:19:44;16.48;;;9.00;;
44728;SDS011;30457;53.590;9.922;2023-02-22T11:24:12;17.30;;;9.43;;
44728;SDS011;30457;53.590;9.922;2023-02-22T11:28:43;15.75;;;8.88;;
44728;SDS011;30457;53.590;9.922;2023-02-22T11:37:40;15.75;;;8.75;;
44728;SDS011;30457;53.590;9.922;2023-02-22T11:42:22;16.08;;;8.68;;
44728;SDS011;30457;53.590;9.922;2023-02-22T11:46:50;17.70;;;8.48;;
44728;SDS011;30457;53.590;9.922;2023-02-22T11:56:28;18.92;;;8.82;;
44728;SDS011;30457;53.590;9.922;2023-02-22T12:01:04;14.90;;;8.13;;
44728;SDS011;30457;53.590;9.922;2023-02-22T12:05:56;16.20;;;8.43;;
44728;SDS011;30457;53.590;9.922;2023-02-22T12:20:13;18.10;;;9.50;;
44728;SDS011;30457;53.590;9.922;2023-02-22T12:29:46;13.82;;;7.80;;
44728;SDS011;30457;53.590;9.922;2023-02-22T12:34:27;13.05;;;7.47;;
44728;SDS011;30457;53.590;9.922;2023-02-22T12:39:02;16.50;;;7.75;;
44728;SDS011;30457;53.590;9.922;2023-02-22T12:43:34;15.32;;;8.38;;
44728;SDS011;30457;53.590;9.922;2023-02-22T12:53:12;15.82;;;7.75;;
44728;SDS011;30457;53.590;9.922;2023-02-22T13:02:48;13.80;;;7.85;;
44728;SDS011;30457;53.590;9.922;2023-02-22T13:17:02;13.50;;;6.60;;
44728;SDS011;30457;53.590;9.922;2023-02-22T13:21:50;12.15;;;6.30;;
44728;SDS011;30457;53.590;9.922;2023-02-22T13:26:24;10.80;;;6.72;;
44728;SDS011;30457;53.590;9.922;2023-02-22T13:40:37;12.50;;;6.68;;
44728;SDS011;30457;53.590;9.922;2023-02-22T13:54:50;11.25;;;6.63;;
44728;SDS011;30457;53.590;9.922;2023-02-22T13:59:23;11.13;;;6.57;;
44728;SDS011;30457;53.590;9.922;2023-02-22T14:03:52;11.13;;;6.78;;
44728;SDS011;30457;53.590;9.922;2023-02-22T14:08:46;12.63;;;6.40;;
44728;SDS011;30457;53.590;9.922;2023-02-22T14:13:12;13.30;;;6.68;;
44728;SDS011;30457;53.590;9.922;2023-02-22T14:17:43;8.30;;;5.75;;
44728;SDS011;30457;53.590;9.922;2023-02-22T14:22:26;11.27;;;6.30;;
44728;SDS011;30457;53.590;9.922;2023-02-22T14:26:54;11.43;;;6.30;;
44728;SDS011;30457;53.590;9.922;2023-02-22T14:31:30;8.60;;;5.35;;
44728;SDS011;30457;53.590;9.922;2023-02-22T14:35:57;9.20;;;5.25;;
44728;SDS011;30457;53.590;9.922;2023-02-22T14:40:27;11.68;;;5.85;;
44728;SDS011;30457;53.590;9.922;2023-02-22T14:49:39;8.35;;;5.60;;
44728;SDS011;30457;53.590;9.922;2023-02-22T14:54:10;11.02;;;6.00;;
44728;SDS011;30457;53.590;9.922;2023-02-22T15:03:32;11.63;;;6.40;;
44728;SDS011;30457;53.590;9.922;2023-02-22T15:08:02;11.60;;;6.38;;
44728;SDS011;30457;53.590;9.922;2023-02-22T15:12:30;10.43;;;6.53;;
44728;SDS011;30457;53.590;9.922;2023-02-22T15:16:56;13.90;;;5.80;;
44728;SDS011;30457;53.590;9.922;2023-02-22T15:21:26;14.00;;;6.38;;
44728;SDS011;30457;53.590;9.922;2023-02-22T15:25:52;11.27;;;6.35;;
44728;SDS011;30457;53.590;9.922;2023-02-22T15:30:22;15.00;;;5.40;;
44728;SDS011;30457;53.590;9.922;2023-02-22T15:34:50;12.77;;;5.93;;
44728;SDS011;30457;53.590;9.922;2023-02-22T15:44:07;12.25;;;6.55;;
44728;SDS011;30457;53.590;9.922;2023-02-22T15:48:35;12.32;;;6.50;;
44728;SDS011;30457;53.590;9.922;2023-02-22T15:53:06;12.43;;;6.68;;
44728;SDS011;30457;53.590;9.922;2023-02-22T15:57:47;9.48;;;6.13;;
44728;SDS011;30457;53.590;9.922;2023-02-22T16:02:34;12.07;;;6.35;;
44728;SDS011;30457;53.590;9.922;2023-02-22T16:07:06;12.93;;;6.15;;
44728;SDS011;30457;53.590;9.922;2023-02-22T16:11:42;12.63;;;7.10;;
44728;SDS011;30457;53.590;9.922;2023-02-22T16:16:20;11.55;;;6.70;;
44728;SDS011;30457;53.590;9.922;2023-02-22T16:20:56;13.65;;;6.80;;
44728;SDS011;30457;53.590;9.922;2023-02-22T16:25:25;15.10;;;7.05;;
44728;SDS011;30457;53.590;9.922;2023-02-22T16:30:01;14.30;;;7.13;;
44728;SDS011;30457;53.590;9.922;2023-02-22T16:34:33;12.30;;;7.20;;
44728;SDS011;30457;53.590;9.922;2023-02-22T16:38:58;12.68;;;6.60;;
44728;SDS011;30457;53.590;9.922;2023-02-22T16:43:25;12.75;;;6.70;;
44728;SDS011;30457;53.590;9.922;2023-02-22T16:47:53;13.45;;;6.43;;
44728;SDS011;30457;53.590;9.922;2023-02-22T16:52:19;11.23;;;7.13;;
44728;SDS011;30457;53.590;9.922;2023-02-22T16:56:45;11.30;;;6.53;;
44728;SDS011;30457;53.590;9.922;2023-02-22T17:01:10;13.15;;;6.45;;
44728;SDS011;30457;53.590;9.922;2023-02-22T17:05:36;11.63;;;6.22;;
44728;SDS011;30457;53.590;9.922;2023-02-22T17:10:02;13.90;;;6.80;;
44728;SDS011;30457;53.590;9.922;2023-02-22T17:14:30;11.43;;;6.88;;
44728;SDS011;30457;53.590;9.922;2023-02-22T17:18:57;12.98;;;7.25;;
44728;SDS011;30457;53.590;9.922;2023-02-22T17:23:23;13.15;;;6.80;;
44728;SDS011;30457;53.590;9.922;2023-02-22T17:27:51;11.93;;;6.63;;
44728;SDS011;30457;53.590;9.922;2023-02-22T17:32:17;12.30;;;6.78;;
44728;SDS011;30457;53.590;9.922;2023-02-22T17:36:42;12.45;;;6.57;;
44728;SDS011;30457;53.590;9.922;2023-02-22T17:41:08;13.10;;;6.82;;
44728;SDS011;30457;53.590;9.922;2023-02-22T17:45:36;12.85;;;6.53;;
44728;SDS011;30457;53.590;9.922;2023-02-22T17:50:03;13.10;;;6.75;;
44728;SDS011;30457;53.590;9.922;2023-02-22T17:54:29;13.63;;;7.05;;
44728;SDS011;30457;53.590;9.922;2023-02-22T17:58:54;17.08;;;7.10;;
44728;SDS011;30457;53.590;9.922;2023-02-22T18:03:20;13.68;;;6.93;;
44728;SDS011;30457;53.590;9.922;2023-02-22T18:07:49;12.10;;;6.93;;
44728;SDS011;30457;53.590;9.922;2023-02-22T18:12:14;15.43;;;7.50;;
44728;SDS011;30457;53.590;9.922;2023-02-22T18:16:40;13.52;;;6.97;;
44728;SDS011;30457;53.590;9.922;2023-02-22T18:21:06;11.35;;;6.45;;
44728;SDS011;30457;53.590;9.922;2023-02-22T18:25:32;13.35;;;6.53;;
44728;SDS011;30457;53.590;9.922;2023-02-22T18:30:04;12.25;;;6.10;;
44728;SDS011;30457;53.590;9.922;2023-02-22T18:34:30;12.40;;;6.50;;
44728;SDS011;30457;53.590;9.922;2023-02-22T18:38:57;11.23;;;6.15;;
44728;SDS011;30457;53.590;9.922;2023-02-22T18:43:22;10.43;;;6.60;;
44728;SDS011;30457;53.590;9.922;2023-02-22T18:47:48;11.50;;;5.78;;
44728;SDS011;30457;53.590;9.922;2023-02-22T18:52:14;9.88;;;5.97;;
44728;SDS011;30457;53.590;9.922;2023-02-22T18:56:39;11.02;;;5.78;;
44728;SDS011;30457;53.590;9.922;2023-02-22T19:01:05;7.95;;;5.25;;
44728;SDS011;30457;53.590;9.922;2023-02-22T19:05:31;12.63;;;5.88;;
44728;SDS011;30457;53.590;9.922;2023-02-22T19:09:58;12.30;;;6.13;;
44728;SDS011;30457;53.590;9.922;2023-02-22T19:14:24;11.27;;;5.95;;
44728;SDS011;30457;53.590;9.922;2023-02-22T19:18:50;11.20;;;6.05;;
44728;SDS011;30457;53.590;9.922;2023-02-22T19:23:20;10.57;;;6.15;;
44728;SDS011;30457;53.590;9.922;2023-02-22T19:27:46;11.43;;;5.95;;
44728;SDS011;30457;53.590;9.922;2023-02-22T19:32:11;11.98;;;6.97;;
44728;SDS011;30457;53.590;9.922;2023-02-22T19:36:37;13.35;;;6.95;;
44728;SDS011;30457;53.590;9.922;2023-02-22T19:41:12;11.43;;;6.95;;
44728;SDS011;30457;53.590;9.922;2023-02-22T19:45:41;11.93;;;6.32;;
44728;SDS011;30457;53.590;9.922;2023-02-22T19:50:07;11.85;;;6.65;;
44728;SDS011;30457;53.590;9.922;2023-02-22T19:54:32;10.10;;;5.90;;
44728;SDS011;30457;53.590;9.922;2023-02-22T19:58:58;13.82;;;6.38;;
44728;SDS011;30457;53.590;9.922;2023-02-22T20:03:27;13.15;;;6.25;;
44728;SDS011;30457;53.590;9.922;2023-02-22T20:07:54;13.25;;;6.35;;
44728;SDS011;30457;53.590;9.922;2023-02-22T20:12:20;10.30;;;6.20;;
44728;SDS011;30457;53.590;9.922;2023-02-22T20:16:46;10.10;;;5.97;;
44728;SDS011;30457;53.590;9.922;2023-02-22T20:21:12;13.02;;;7.25;;
44728;SDS011;30457;53.590;9.922;2023-02-22T20:25:49;11.75;;;7.18;;
44728;SDS011;30457;53.590;9.922;2023-02-22T20:30:17;12.38;;;7.30;;
44728;SDS011;30457;53.590;9.922;2023-02-22T20:34:44;13.95;;;7.10;;
44728;SDS011;30457;53.590;9.922;2023-02-22T20:39:11;12.90;;;6.35;;
44728;SDS011;30457;53.590;9.922;2023-02-22T20:43:37;12.80;;;6.65;;
44728;SDS011;30457;53.590;9.922;2023-02-22T20:48:03;11.77;;;7.35;;
44728;SDS011;30457;53.590;9.922;2023-02-22T20:52:29;15.25;;;7.30;;
44728;SDS011;30457;53.590;9.922;2023-02-22T20:56:55;11.75;;;6.93;;
44728;SDS011;30457;53.590;9.922;2023-02-22T21:01:20;12.73;;;6.72;;
44728;SDS011;30457;53.590;9.922;2023-02-22T21:05:46;11.75;;;6.97;;
44728;SDS011;30457;53.590;9.922;2023-02-22T21:10:12;14.93;;;7.53;;
44728;SDS011;30457;53.590;9.922;2023-02-22T21:14:40;14.40;;;7.30;;
44728;SDS011;30457;53.590;9.922;2023-02-22T21:19:08;12.27;;;6.00;;
44728;SDS011;30457;53.590;9.922;2023-02-22T21:23:33;13.23;;;7.07;;
44728;SDS011;30457;53.590;9.922;2023-02-22T21:27:59;17.70;;;7.10;;
44728;SDS011;30457;53.590;9.922;2023-02-22T21:32:25;10.60;;;6.65;;
44728;SDS011;30457;53.590;9.922;2023-02-22T21:36:50;13.43;;;6.97;;
44728;SDS011;30457;53.590;9.922;2023-02-22T21:41:17;13.05;;;7.32;;
44728;SDS011;30457;53.590;9.922;2023-02-22T21:45:43;13.25;;;6.88;;
44728;SDS011;30457;53.590;9.922;2023-02-22T21:50:09;13.57;;;6.93;;
44728;SDS011;30457;53.590;9.922;2023-02-22T21:54:35;15.38;;;7.80;;
44728;SDS011;30457;53.590;9.922;2023-02-22T21:59:11;15.30;;;8.30;;
44728;SDS011;30457;53.590;9.922;2023-02-22T22:03:38;17.08;;;8.75;;
44728;SDS011;30457;53.590;9.922;2023-02-22T22:08:04;14.35;;;7.07;;
44728;SDS011;30457;53.590;9.922;2023-02-22T22:12:34;12.85;;;7.20;;
44728;SDS011;30457;53.590;9.922;2023-02-22T22:17:04;14.45;;;7.10;;
44728;SDS011;30457;53.590;9.922;2023-02-22T22:21:31;12.73;;;7.47;;
44728;SDS011;30457;53.590;9.922;2023-02-22T22:26:01;15.63;;;7.28;;
44728;SDS011;30457;53.590;9.922;2023-02-22T22:30:27;16.02;;;7.47;;
44728;SDS011;30457;53.590;9.922;2023-02-22T22:34:52;14.50;;;7.50;;
44728;SDS011;30457;53.590;9.922;2023-02-22T22:39:20;16.80;;;9.13;;
44728;SDS011;30457;53.590;9.922;2023-02-22T22:43:46;14.52;;;7.60;;
44728;SDS011;30457;53.590;9.922;2023-02-22T22:48:12;13.73;;;7.65;;
44728;SDS011;30457;53.590;9.922;2023-02-22T22:52:39;11.75;;;6.80;;
44728;SDS011;30457;53.590;9.922;2023-02-22T22:57:04;18.55;;;8.55;;
44728;SDS011;30457;53.590;9.922;2023-02-22T23:01:30;15.82;;;8.25;;
44728;SDS011;30457;53.590;9.922;2023-02-22T23:06:02;15.82;;;8.32;;
44728;SDS011;30457;53.590;9.922;2023-02-22T23:10:29;12.90;;;7.85;;
44728;SDS011;30457;53.590;9.922;2023-02-22T23:15:03;14.40;;;9.07;;
44728;SDS011;30457;53.590;9.922;2023-02-22T23:19:33;16.98;;;8.57;;
44728;SDS011;30457;53.590;9.922;2023-02-22T23:24:00;13.77;;;7.82;;
44728;SDS011;30457;53.590;9.922;2023-02-22T23:28:26;12.23;;;8.30;;
44728;SDS011;30457;53.590;9.922;2023-02-22T23:32:52;19.70;;;9.75;;
44728;SDS011;30457;53.590;9.922;2023-02-22T23:37:18;14.50;;;8.20;;
44728;SDS011;30457;53.590;9.922;2023-02-22T23:41:44;17.90;;;8.27;;
44728;SDS011;30457;53.590;9.922;2023-02-22T23:46:14;12.13;;;7.38;;
44728;SDS011;30457;53.590;9.922;2023-02-22T23:50:42;14.07;;;8.32;;
44728;SDS011;30457;53.590;9.922;2023-02-22T23:55:08;14.73;;;7.68;;
44728;SDS011;30457;53.590;9.922;2023-02-22T23:59:33;14.48;;;8.00;;
